Time;durP1;ratioP1;P1;durP2;ratioP2;P2;SDS_P1;SDS_P2;PMS_P1;PMS_P2;Temp;Humidity;BMP_temperature;BMP_pressure;BME280_temperature;BME280_humidity;BME280_pressure;Samples;Min_cycle;Max_cycle;Signal;HPM_P1;HPM_P2
2021/12/09 18:28:52;;;;;;;173.57;139.50;;;22.30;49.60;;;;;;4799058;54;28571;-24
2021/12/09 18:33:54;;;;;;;170.57;134.10;;;22.20;50.20;;;;;;4749660;58;21021;-24
2021/12/09 18:38:56;;;;;;;177.18;142.15;;;22.20;50.50;;;;;;4903687;55;21479;-28
2021/12/09 18:43:58;;;;;;;163.10;135.60;;;22.20;51.00;;;;;;4759157;55;21069;-30
2021/12/09 18:48:59;;;;;;;174.87;141.02;;;22.20;51.20;;;;;;4863642;55;21483;-29
2021/12/09 18:54:01;;;;;;;164.65;135.50;;;22.30;51.50;;;;;;4959742;54;20986;-26
2021/12/09 18:59:03;;;;;;;165.73;132.20;;;22.30;51.80;;;;;;4759600;55;20998;-30
2021/12/09 19:04:06;;;;;;;164.65;129.80;;;22.40;52.40;;;;;;4755325;55;21019;-29
2021/12/09 19:09:07;;;;;;;172.50;132.23;;;22.50;52.30;;;;;;5047047;55;21041;-30
2021/12/09 19:14:08;;;;;;;168.00;133.77;;;22.50;52.60;;;;;;4750050;58;21552;-30
2021/12/09 19:19:14;;;;;;;169.55;131.73;;;22.50;52.60;;;;;;4795062;55;21500;-29
2021/12/09 19:24:16;;;;;;;175.98;136.10;;;22.50;53.20;;;;;;4952088;55;21071;-26
2021/12/09 19:29:18;;;;;;;169.45;130.27;;;22.50;53.50;;;;;;4883440;55;21134;-31
2021/12/09 19:34:19;;;;;;;158.00;127.25;;;22.60;53.70;;;;;;4750325;58;21256;-30
2021/12/09 19:39:23;;;;;;;170.15;130.05;;;22.50;53.90;;;;;;4892989;55;21080;-31
2021/12/09 19:44:25;;;;;;;157.90;124.72;;;22.50;54.00;;;;;;4748185;58;21488;-31
2021/12/09 19:49:25;;;;;;;162.12;127.00;;;22.50;54.40;;;;;;4818723;55;21021;-24
2021/12/09 19:54:26;;;;;;;155.65;123.82;;;22.60;54.60;;;;;;4747580;58;21006;-29
2021/12/09 19:59:28;;;;;;;149.40;120.20;;;22.60;54.80;;;;;;4746324;58;21120;-31
2021/12/09 20:04:29;;;;;;;160.90;128.12;;;22.50;54.70;;;;;;4769408;55;21528;-31
2021/12/09 20:09:30;;;;;;;154.52;117.10;;;22.40;54.70;;;;;;4782810;55;21022;-29
2021/12/09 20:14:31;;;;;;;161.60;127.78;;;22.30;54.80;;;;;;4842754;55;21017;-30
2021/12/09 20:19:32;;;;;;;155.23;126.32;;;22.20;54.50;;;;;;4889897;55;21552;-30
2021/12/09 20:24:33;;;;;;;157.55;122.43;;;22.20;54.50;;;;;;4886835;54;21080;-30
2021/12/09 20:29:34;;;;;;;160.68;130.45;;;22.10;54.30;;;;;;4747812;58;21078;-31
2021/12/09 20:34:35;;;;;;;157.88;126.25;;;22.10;54.20;;;;;;4748455;58;21069;-28
2021/12/09 20:39:38;;;;;;;157.23;124.85;;;22.00;54.10;;;;;;4747875;58;20973;-31
2021/12/09 20:44:39;;;;;;;151.73;121.13;;;22.00;54.00;;;;;;4805777;55;21598;-31
2021/12/09 20:49:40;;;;;;;155.37;126.87;;;21.90;53.80;;;;;;4843794;55;20994;-28
2021/12/09 20:54:41;;;;;;;160.45;127.22;;;21.90;53.70;;;;;;4769575;55;21064;-30
2021/12/09 20:59:42;;;;;;;154.07;122.13;;;21.80;53.50;;;;;;4774019;54;21523;-30
2021/12/09 21:04:43;;;;;;;153.55;125.60;;;21.80;53.40;;;;;;4747387;58;21017;-30
2021/12/09 21:09:44;;;;;;;150.73;120.53;;;21.80;53.40;;;;;;4747925;55;21117;-29
2021/12/09 21:14:44;;;;;;;163.40;128.90;;;21.80;53.30;;;;;;4787629;54;21116;-29
2021/12/09 21:19:47;;;;;;;149.45;122.28;;;21.70;53.10;;;;;;4963638;55;21017;-29
2021/12/09 21:24:49;;;;;;;149.50;121.35;;;21.70;53.00;;;;;;5041193;55;21511;-30
2021/12/09 21:29:50;;;;;;;143.80;115.78;;;21.70;52.90;;;;;;4860586;55;21030;-31
2021/12/09 21:35:04;;;;;;;147.95;122.13;;;21.70;52.90;;;;;;4748026;58;21037;-28
2021/12/09 21:40:07;;;;;;;149.75;123.28;;;21.60;52.80;;;;;;4950096;55;21543;-30
2021/12/09 21:45:10;;;;;;;142.37;116.75;;;21.60;52.60;;;;;;4781223;55;21520;-31
2021/12/09 21:50:12;;;;;;;140.20;111.75;;;21.60;52.50;;;;;;4747976;58;21476;-29
2021/12/09 21:55:13;;;;;;;144.65;119.15;;;21.60;52.50;;;;;;4807365;55;21005;-29
2021/12/09 22:00:17;;;;;;;136.70;111.05;;;21.60;52.30;;;;;;4748048;58;20982;-30
2021/12/09 22:05:20;;;;;;;142.00;119.55;;;21.50;52.20;;;;;;4810069;55;21069;-32
2021/12/09 22:10:23;;;;;;;133.07;106.72;;;21.50;52.10;;;;;;5004925;55;21056;-30
2021/12/09 22:15:24;;;;;;;134.90;108.95;;;21.50;52.10;;;;;;5234236;55;21488;-29
2021/12/09 22:20:26;;;;;;;129.18;104.53;;;21.50;52.00;;;;;;4864680;54;21017;-29
2021/12/09 22:25:27;;;;;;;126.22;103.93;;;21.50;51.90;;;;;;4775359;55;21504;-27
2021/12/09 22:30:28;;;;;;;132.77;108.32;;;21.50;51.80;;;;;;4747484;58;21578;-29
2021/12/09 22:35:30;;;;;;;124.85;100.90;;;21.40;51.70;;;;;;5233854;55;21405;-31
2021/12/09 22:40:31;;;;;;;124.25;101.70;;;21.50;51.80;;;;;;4907659;55;21013;-32
2021/12/09 22:45:32;;;;;;;131.80;110.03;;;21.40;51.60;;;;;;4856856;55;21575;-31
2021/12/09 22:50:33;;;;;;;127.38;105.53;;;21.40;51.60;;;;;;4774975;54;21017;-28
2021/12/09 22:55:36;;;;;;;130.12;108.12;;;21.40;51.50;;;;;;5170287;55;21476;-31
2021/12/09 23:00:45;;;;;;;126.30;106.85;;;21.40;51.40;;;;;;4808471;55;21586;-31
2021/12/09 23:05:50;;;;;;;134.85;104.57;;;21.40;51.30;;;;;;4846198;55;21551;-29
2021/12/09 23:10:52;;;;;;;115.05;98.03;;;21.40;51.20;;;;;;4939436;55;21006;-29
2021/12/09 23:15:56;;;;;;;119.35;99.75;;;21.40;51.20;;;;;;4910578;55;21010;-31
2021/12/09 23:20:57;;;;;;;119.20;99.62;;;21.40;51.10;;;;;;4748349;58;21536;-30
2021/12/09 23:25:57;;;;;;;111.43;93.22;;;21.40;51.00;;;;;;4831281;54;21013;-31
2021/12/09 23:31:04;;;;;;;113.75;95.60;;;21.30;50.90;;;;;;4946044;55;21021;-30
2021/12/09 23:36:08;;;;;;;113.50;93.43;;;21.30;50.90;;;;;;4748290;58;21460;-33
2021/12/09 23:41:10;;;;;;;109.05;88.30;;;21.30;50.70;;;;;;4748238;55;21511;-31
2021/12/09 23:46:11;;;;;;;111.25;94.80;;;21.30;50.70;;;;;;4906991;55;21065;-29
2021/12/09 23:51:12;;;;;;;108.40;89.37;;;21.30;50.70;;;;;;4780255;55;21033;-31
2021/12/09 23:56:13;;;;;;;111.20;92.00;;;21.30;50.60;;;;;;4778041;55;21009;-28
